createdAt,value
2019-06-20T00:02:21.995Z,22.72
2019-06-20T00:04:55.132Z,22.83
2019-06-20T00:07:28.275Z,22.88
2019-06-20T00:10:01.194Z,22.92
2019-06-20T00:12:34.244Z,22.91
2019-06-20T00:15:07.574Z,22.84
2019-06-20T00:17:40.627Z,22.79
2019-06-20T00:20:14.229Z,22.80
2019-06-20T00:22:47.395Z,22.80
2019-06-20T00:25:20.518Z,22.77
2019-06-20T00:27:53.489Z,22.77
2019-06-20T00:30:26.489Z,22.73
2019-06-20T00:32:59.483Z,22.77
2019-06-20T00:35:32.405Z,22.77
2019-06-20T00:38:05.441Z,22.74
2019-06-20T00:40:38.412Z,22.73
2019-06-20T00:43:17.587Z,22.68
2019-06-20T00:45:46.327Z,22.55
2019-06-20T00:48:19.455Z,22.39
2019-06-20T00:50:52.370Z,22.36
2019-06-20T00:53:26.399Z,22.53
2019-06-20T00:55:59.391Z,22.61
2019-06-20T00:58:32.503Z,22.63
2019-06-20T01:01:05.515Z,22.59
2019-06-20T01:03:38.759Z,22.55
2019-06-20T01:06:11.590Z,22.58
2019-06-20T01:08:44.635Z,22.60
2019-06-20T01:11:17.490Z,22.61
2019-06-20T01:13:52.785Z,22.60
2019-06-20T01:16:25.139Z,22.50
2019-06-20T01:18:58.179Z,22.42
2019-06-20T01:21:31.234Z,22.28
2019-06-20T01:24:04.300Z,22.22
2019-06-20T01:26:37.325Z,22.11
2019-06-20T01:29:10.319Z,22.10
2019-06-20T01:31:43.326Z,22.02
2019-06-20T01:34:16.304Z,22.01
2019-06-20T01:36:49.352Z,22.01
2019-06-20T01:39:22.441Z,21.96
2019-06-20T01:41:55.491Z,21.96
2019-06-20T01:44:29.477Z,21.93
2019-06-20T01:47:03.533Z,21.95
2019-06-20T01:49:36.451Z,21.95
2019-06-20T01:52:09.429Z,21.95
2019-06-20T01:54:42.466Z,21.96
2019-06-20T01:57:15.435Z,21.99
2019-06-20T01:59:48.522Z,22.02
2019-06-20T02:02:21.578Z,22.05
2019-06-20T02:04:54.595Z,22.10
2019-06-20T02:07:28.880Z,22.12
2019-06-20T02:10:01.786Z,22.13
2019-06-20T02:12:34.973Z,22.14
2019-06-20T02:15:08.017Z,22.14
2019-06-20T02:17:41.059Z,22.14
2019-06-20T02:20:30.488Z,22.11
2019-06-20T02:23:04.051Z,22.02
2019-06-20T02:25:37.200Z,21.97
2019-06-20T02:28:10.162Z,21.89
2019-06-20T02:30:43.098Z,21.83
2019-06-20T02:33:16.179Z,21.81
2019-06-20T02:35:49.299Z,21.82
2019-06-20T02:38:22.216Z,21.87
2019-06-20T02:40:55.139Z,21.91
2019-06-20T02:43:28.310Z,21.79
2019-06-20T02:46:01.389Z,21.74
2019-06-20T02:48:34.385Z,21.69
2019-06-20T02:51:07.345Z,21.60
2019-06-20T02:53:40.667Z,21.60
2019-06-20T02:56:14.635Z,21.64
2019-06-20T02:58:47.553Z,21.63
2019-06-20T03:01:20.523Z,21.58
2019-06-20T03:03:53.737Z,21.56
2019-06-20T03:06:26.688Z,21.49
2019-06-20T03:08:59.640Z,21.46
2019-06-20T03:11:32.657Z,21.50
2019-06-20T03:14:06.094Z,21.54
2019-06-20T03:16:39.166Z,21.55
2019-06-20T03:19:12.078Z,21.57
2019-06-20T03:21:45.171Z,21.49
2019-06-20T03:24:18.602Z,21.40
2019-06-20T03:26:51.683Z,21.37
2019-06-20T03:29:24.658Z,21.09
2019-06-20T03:31:57.601Z,21.16
2019-06-20T03:34:30.585Z,21.23
2019-06-20T03:37:04.364Z,21.36
2019-06-20T03:39:37.387Z,21.46
2019-06-20T03:42:10.318Z,21.48
2019-06-20T03:44:58.433Z,21.46
2019-06-20T03:47:19.323Z,21.45
2019-06-20T03:49:52.282Z,21.42
2019-06-20T03:52:25.285Z,21.43
2019-06-20T03:54:58.106Z,21.49
2019-06-20T03:57:30.955Z,21.55
2019-06-20T04:00:05.354Z,21.58
2019-06-20T04:02:38.874Z,21.68
2019-06-20T04:05:12.063Z,21.70
2019-06-20T04:07:44.935Z,21.75
2019-06-20T04:10:18.023Z,21.71
2019-06-20T04:12:52.062Z,21.95
2019-06-20T04:15:24.868Z,22.11
2019-06-20T04:17:57.812Z,22.28
2019-06-20T04:20:30.706Z,22.30
2019-06-20T04:23:03.850Z,22.32
2019-06-20T04:25:36.855Z,22.38
2019-06-20T04:28:09.973Z,22.56
2019-06-20T04:30:43.044Z,22.68
2019-06-20T04:33:16.349Z,22.76
2019-06-20T04:35:49.439Z,22.85
2019-06-20T04:38:22.462Z,22.95
2019-06-20T04:40:55.392Z,22.84
2019-06-20T04:43:28.503Z,22.89
2019-06-20T04:46:07.357Z,22.97
2019-06-20T04:48:41.440Z,23.13
2019-06-20T04:51:14.420Z,23.34
2019-06-20T04:53:47.678Z,23.60
2019-06-20T04:56:20.813Z,23.62
2019-06-20T04:58:53.828Z,23.87
2019-06-20T05:01:26.844Z,23.90
2019-06-20T05:03:59.768Z,23.72
2019-06-20T05:06:32.798Z,23.69
2019-06-20T05:09:07.521Z,23.98
2019-06-20T05:11:40.373Z,24.26
2019-06-20T05:14:13.382Z,24.47
2019-06-20T05:16:46.597Z,24.73
2019-06-20T05:19:19.518Z,25.04
2019-06-20T05:21:53.605Z,25.19
2019-06-20T05:24:26.813Z,25.25
2019-06-20T05:26:59.880Z,25.39
2019-06-20T05:29:33.299Z,25.45
2019-06-20T05:32:06.295Z,25.65
2019-06-20T05:34:39.201Z,25.81
2019-06-20T05:37:12.367Z,26.02
2019-06-20T05:39:45.378Z,26.19
2019-06-20T05:42:19.768Z,26.25
2019-06-20T05:44:53.110Z,26.28
2019-06-20T05:47:26.295Z,26.45
2019-06-20T05:49:59.306Z,26.55
2019-06-20T05:52:32.285Z,26.84
2019-06-20T05:55:05.568Z,27.10
2019-06-20T05:57:38.673Z,27.14
2019-06-20T06:00:13.861Z,27.24
2019-06-20T06:02:46.768Z,27.23
2019-06-20T06:05:19.813Z,27.33
2019-06-20T06:07:52.813Z,27.38
2019-06-20T06:10:25.903Z,27.65
2019-06-20T06:12:58.845Z,27.62
2019-06-20T06:15:31.847Z,27.67
2019-06-20T06:18:05.062Z,27.96
2019-06-20T06:20:38.158Z,28.11
2019-06-20T06:23:11.163Z,28.42
2019-06-20T06:25:44.776Z,28.53
2019-06-20T06:28:18.958Z,28.74
2019-06-20T06:30:51.942Z,28.85
2019-06-20T06:33:24.938Z,28.74
2019-06-20T06:35:58.089Z,28.86
2019-06-20T06:38:31.739Z,28.93
2019-06-20T06:41:04.732Z,29.22
2019-06-20T06:43:41.861Z,29.29
2019-06-20T06:46:12.507Z,29.53
2019-06-20T06:48:45.620Z,29.67
2019-06-20T06:51:18.622Z,29.74
2019-06-20T06:53:51.671Z,29.80
2019-06-20T06:56:24.778Z,29.67
2019-06-20T06:58:58.213Z,29.95
2019-06-20T07:01:31.310Z,30.05
2019-06-20T07:04:04.367Z,30.00
2019-06-20T07:06:37.465Z,30.24
2019-06-20T07:09:10.483Z,30.37
2019-06-20T07:11:43.609Z,30.36
2019-06-20T07:14:16.581Z,30.59
2019-06-20T07:17:00.205Z,30.63
2019-06-20T07:19:36.576Z,30.73
2019-06-20T07:22:09.830Z,30.59
2019-06-20T07:24:42.877Z,30.60
2019-06-20T07:27:16.977Z,30.93
2019-06-20T07:29:50.114Z,30.66
2019-06-20T07:32:23.038Z,30.58
2019-06-20T07:34:56.086Z,30.94
2019-06-20T07:37:29.206Z,31.26
2019-06-20T07:40:02.211Z,31.41
2019-06-20T07:42:35.430Z,31.46
2019-06-20T07:45:09.648Z,31.28
2019-06-20T07:47:42.847Z,31.68
2019-06-20T07:50:16.325Z,31.88
2019-06-20T07:53:01.560Z,31.81
2019-06-20T07:55:24.213Z,32.03
2019-06-20T07:57:57.251Z,31.81
2019-06-20T08:00:30.911Z,32.32
2019-06-20T08:03:05.231Z,32.11
2019-06-20T08:05:38.311Z,32.49
2019-06-20T08:08:11.311Z,32.49
2019-06-20T08:10:44.398Z,32.21
2019-06-20T08:13:17.306Z,32.32
2019-06-20T08:15:51.367Z,32.73
2019-06-20T08:18:25.449Z,33.11
2019-06-20T08:20:58.552Z,33.11
2019-06-20T08:23:31.632Z,33.32
2019-06-20T08:26:04.630Z,33.29
2019-06-20T08:28:37.710Z,33.67
2019-06-20T08:31:10.672Z,33.39
2019-06-20T08:33:43.641Z,33.96
2019-06-20T08:36:16.658Z,34.09
2019-06-20T08:38:49.531Z,34.09
2019-06-20T08:41:22.440Z,34.07
2019-06-20T08:43:56.753Z,33.73
2019-06-20T08:46:30.108Z,33.30
2019-06-20T08:49:03.600Z,32.86
2019-06-20T08:51:36.789Z,33.25
2019-06-20T08:54:10.097Z,33.33
2019-06-20T08:56:43.376Z,33.74
2019-06-20T08:59:24.515Z,32.59
2019-06-20T09:01:51.042Z,33.67
2019-06-20T09:04:24.124Z,33.67
2019-06-20T09:06:58.600Z,34.69
2019-06-20T09:09:32.166Z,34.69
2019-06-20T09:12:05.328Z,34.26
2019-06-20T09:14:38.383Z,34.77
2019-06-20T09:17:12.481Z,35.06
2019-06-20T09:19:45.746Z,35.08
2019-06-20T09:22:18.725Z,35.16
2019-06-20T09:24:53.667Z,34.76
2019-06-20T09:27:27.755Z,34.57
2019-06-20T09:30:00.858Z,34.40
2019-06-20T09:32:34.974Z,34.58
2019-06-20T09:35:08.696Z,35.02
2019-06-20T09:37:41.780Z,34.84
2019-06-20T09:40:15.691Z,34.81
2019-06-20T09:42:48.592Z,34.71
2019-06-20T09:45:22.064Z,34.78
2019-06-20T09:47:56.032Z,34.50
2019-06-20T09:50:29.819Z,34.46
2019-06-20T09:53:02.879Z,35.17
2019-06-20T09:55:36.009Z,34.75
2019-06-20T09:58:08.943Z,34.92
2019-06-20T10:00:42.172Z,35.25
2019-06-20T10:03:15.393Z,35.13
2019-06-20T10:05:49.337Z,35.23
2019-06-20T10:08:23.211Z,35.36
2019-06-20T10:10:56.382Z,35.66
2019-06-20T10:13:32.682Z,35.89
2019-06-20T10:16:04.507Z,35.67
2019-06-20T10:18:37.520Z,35.77
2019-06-20T10:21:10.645Z,35.99
2019-06-20T10:23:46.039Z,35.91
2019-06-20T10:26:18.610Z,35.73
2019-06-20T10:28:53.020Z,35.66
2019-06-20T10:31:26.315Z,35.12
2019-06-20T10:33:59.534Z,35.39
2019-06-20T10:36:32.694Z,35.76
2019-06-20T10:39:08.619Z,35.96
2019-06-20T10:41:43.564Z,35.98
2019-06-20T10:44:17.465Z,36.30
2019-06-20T10:46:51.417Z,35.77
2019-06-20T10:49:24.483Z,35.59
2019-06-20T10:51:57.484Z,35.82
2019-06-20T10:54:30.729Z,35.62
2019-06-20T10:57:03.779Z,35.85
2019-06-20T10:59:36.945Z,35.84
2019-06-20T11:02:10.155Z,35.79
2019-06-20T11:04:44.023Z,35.77
2019-06-20T11:07:17.293Z,35.81
2019-06-20T11:09:50.443Z,35.66
2019-06-20T11:12:23.771Z,35.76
2019-06-20T11:14:56.819Z,35.94
2019-06-20T11:17:29.880Z,35.91
2019-06-20T11:20:03.195Z,36.21
2019-06-20T11:22:37.876Z,36.34
2019-06-20T11:25:13.448Z,36.01
2019-06-20T11:27:47.339Z,35.98
2019-06-20T11:30:21.708Z,36.09
2019-06-20T11:32:54.725Z,36.43
2019-06-20T11:35:27.764Z,36.50
2019-06-20T11:38:00.811Z,36.03
2019-06-20T11:40:36.444Z,35.46
2019-06-20T11:43:10.011Z,35.84
2019-06-20T11:45:43.697Z,35.43
2019-06-20T11:48:16.694Z,35.72
2019-06-20T11:50:49.652Z,36.00
2019-06-20T11:53:22.608Z,35.68
2019-06-20T11:55:55.588Z,35.71
2019-06-20T11:58:28.599Z,35.68
2019-06-20T12:01:03.835Z,35.39
2019-06-20T12:03:39.052Z,35.09
2019-06-20T12:06:12.070Z,35.39
2019-06-20T12:08:45.301Z,35.48
2019-06-20T12:11:18.907Z,35.92
2019-06-20T12:13:51.891Z,35.66
2019-06-20T12:16:25.149Z,35.81
2019-06-20T12:18:58.059Z,35.87
2019-06-20T12:21:31.182Z,35.75
2019-06-20T12:24:04.275Z,35.68
2019-06-20T12:26:38.928Z,35.22
2019-06-20T12:29:12.121Z,34.64
2019-06-20T12:31:45.880Z,34.28
2019-06-20T12:34:18.905Z,34.59
2019-06-20T12:36:52.123Z,34.78
2019-06-20T12:39:25.661Z,35.30
2019-06-20T12:41:58.919Z,35.09
2019-06-20T12:44:31.977Z,35.18
2019-06-20T12:47:05.077Z,35.29
2019-06-20T12:49:39.056Z,35.09
2019-06-20T12:52:13.176Z,34.61
2019-06-20T12:54:47.043Z,34.90
2019-06-20T12:57:20.081Z,35.19
2019-06-20T12:59:53.220Z,35.13
2019-06-20T13:02:26.277Z,35.31
2019-06-20T13:04:59.378Z,34.72
2019-06-20T13:07:32.513Z,34.46
2019-06-20T13:10:06.491Z,34.25
2019-06-20T13:12:41.412Z,33.77
2019-06-20T13:15:16.300Z,33.54
2019-06-20T13:17:49.619Z,33.52
2019-06-20T13:20:24.190Z,33.85
2019-06-20T13:22:58.633Z,34.12
2019-06-20T13:25:31.792Z,34.27
2019-06-20T13:28:06.622Z,34.40
2019-06-20T13:30:41.410Z,34.28
2019-06-20T13:33:14.459Z,34.33
2019-06-20T13:35:48.751Z,34.39
2019-06-20T13:38:22.105Z,34.56
2019-06-20T13:40:55.138Z,34.32
2019-06-20T13:43:28.254Z,34.21
2019-06-20T13:46:01.431Z,33.98
2019-06-20T13:48:34.464Z,33.76
2019-06-20T13:51:07.493Z,33.78
2019-06-20T13:53:41.192Z,33.42
2019-06-20T13:56:15.322Z,33.50
2019-06-20T13:58:48.817Z,33.48
2019-06-20T14:01:22.086Z,33.24
2019-06-20T14:03:55.166Z,33.11
2019-06-20T14:06:28.121Z,32.97
2019-06-20T14:09:01.145Z,32.97
2019-06-20T14:11:35.816Z,32.78
2019-06-20T14:14:08.910Z,32.48
2019-06-20T14:16:42.987Z,32.35
2019-06-20T14:19:16.305Z,32.35
2019-06-20T14:21:50.672Z,32.22
2019-06-20T14:24:23.749Z,32.13
2019-06-20T14:26:56.832Z,31.97
2019-06-20T14:29:29.792Z,31.87
2019-06-20T14:32:02.805Z,31.79
2019-06-20T14:34:36.258Z,31.63
2019-06-20T14:37:09.357Z,31.48
2019-06-20T14:39:42.382Z,31.39
2019-06-20T14:42:15.519Z,31.30
2019-06-20T14:44:49.776Z,31.16
2019-06-20T14:47:23.043Z,29.76
2019-06-20T14:49:56.083Z,28.66
2019-06-20T14:52:29.084Z,27.51
2019-06-20T14:55:01.980Z,26.87
2019-06-20T14:57:35.055Z,26.32
2019-06-20T15:00:08.309Z,26.60
2019-06-20T15:02:41.812Z,26.73
2019-06-20T15:05:17.149Z,26.68
2019-06-20T15:07:52.119Z,26.37
2019-06-20T15:10:24.919Z,26.30
2019-06-20T15:12:57.906Z,26.29
2019-06-20T15:15:32.002Z,26.20
2019-06-20T15:18:05.027Z,26.07
2019-06-20T15:20:38.057Z,26.07
2019-06-20T15:23:11.232Z,25.95
2019-06-20T15:25:45.816Z,25.90
2019-06-20T15:28:19.043Z,25.84
2019-06-20T15:30:52.737Z,25.89
2019-06-20T15:33:26.945Z,25.85
2019-06-20T15:36:01.151Z,25.79
2019-06-20T15:38:34.258Z,25.67
2019-06-20T15:41:07.399Z,25.60
2019-06-20T15:43:40.398Z,25.47
2019-06-20T15:46:13.448Z,25.15
2019-06-20T15:48:46.646Z,24.76
2019-06-20T15:51:19.744Z,24.56
2019-06-20T15:53:52.946Z,24.59
2019-06-20T15:56:26.413Z,24.74
2019-06-20T15:58:59.453Z,24.92
2019-06-20T16:01:32.480Z,25.10
2019-06-20T16:04:06.489Z,25.31
2019-06-20T16:06:39.562Z,25.61
2019-06-20T16:09:12.646Z,25.56
2019-06-20T16:11:45.676Z,25.62
2019-06-20T16:14:18.873Z,25.70
2019-06-20T16:16:52.067Z,25.95
2019-06-20T16:19:25.141Z,26.23
2019-06-20T16:21:58.187Z,26.49
2019-06-20T16:24:31.230Z,26.62
2019-06-20T16:27:04.282Z,26.78
2019-06-20T16:29:37.414Z,26.95
2019-06-20T16:32:10.350Z,27.06
2019-06-20T16:34:43.590Z,27.25
2019-06-20T16:37:16.595Z,27.36
2019-06-20T16:39:49.920Z,27.38
2019-06-20T16:42:23.258Z,27.40
2019-06-20T16:44:56.395Z,27.44
2019-06-20T16:47:29.358Z,27.29
2019-06-20T16:50:02.587Z,27.03
2019-06-20T16:52:36.024Z,26.92
2019-06-20T16:55:10.468Z,26.87
2019-06-20T16:57:43.553Z,26.94
2019-06-20T17:00:17.186Z,26.93
2019-06-20T17:02:50.348Z,26.94
2019-06-20T17:05:23.511Z,26.95
2019-06-20T17:07:56.723Z,27.03
2019-06-20T17:10:29.906Z,27.18
2019-06-20T17:13:02.883Z,27.35
2019-06-20T17:15:35.958Z,27.44
2019-06-20T17:18:09.182Z,27.50
2019-06-20T17:20:42.463Z,27.54
2019-06-20T17:23:15.671Z,27.51
2019-06-20T17:25:49.799Z,27.58
2019-06-20T17:28:22.828Z,27.56
2019-06-20T17:30:55.832Z,27.52
2019-06-20T17:33:29.109Z,27.47
2019-06-20T17:36:17.225Z,27.45
2019-06-20T17:38:37.012Z,27.42
2019-06-20T17:41:10.542Z,27.55
2019-06-20T17:43:43.846Z,27.44
2019-06-20T17:46:17.141Z,27.35
2019-06-20T17:48:50.187Z,27.21
2019-06-20T17:51:23.402Z,27.12
2019-06-20T17:53:56.282Z,27.05
2019-06-20T17:56:29.416Z,27.09
2019-06-20T17:59:02.377Z,27.14
2019-06-20T18:01:36.177Z,27.18
2019-06-20T18:04:13.667Z,27.23
2019-06-20T18:06:44.192Z,27.25
2019-06-20T18:09:17.313Z,27.29
2019-06-20T18:11:50.402Z,27.34
2019-06-20T18:14:24.749Z,27.32
2019-06-20T18:16:58.247Z,27.32
2019-06-20T18:19:31.571Z,27.34
2019-06-20T18:22:05.278Z,27.39
2019-06-20T18:24:38.391Z,27.47
2019-06-20T18:27:11.583Z,27.49
2019-06-20T18:29:44.928Z,27.52
2019-06-20T18:32:18.128Z,27.55
2019-06-20T18:35:01.608Z,27.60
2019-06-20T18:37:31.524Z,27.63
2019-06-20T18:40:00.838Z,27.59
2019-06-20T18:42:34.005Z,27.57
2019-06-20T18:45:08.000Z,27.60
2019-06-20T18:47:41.173Z,27.57
2019-06-20T18:50:15.019Z,27.49
2019-06-20T18:52:52.600Z,27.46
2019-06-20T18:55:24.053Z,27.37
2019-06-20T18:57:57.242Z,27.17
2019-06-20T19:00:34.653Z,27.11
2019-06-20T19:03:06.788Z,26.97
2019-06-20T19:05:39.905Z,26.83
2019-06-20T19:08:13.211Z,26.69
2019-06-20T19:10:47.505Z,26.62
2019-06-20T19:13:20.760Z,26.61
2019-06-20T19:15:53.853Z,26.61
2019-06-20T19:18:27.060Z,26.59
2019-06-20T19:21:00.258Z,26.56
2019-06-20T19:23:33.488Z,26.44
2019-06-20T19:26:06.859Z,26.26
2019-06-20T19:28:40.245Z,26.02
2019-06-20T19:31:13.408Z,25.88
2019-06-20T19:33:46.537Z,25.86
2019-06-20T19:36:19.701Z,25.74
2019-06-20T19:38:53.426Z,25.70
2019-06-20T19:41:27.150Z,25.69
2019-06-20T19:44:00.385Z,25.65
2019-06-20T19:46:33.492Z,25.57
2019-06-20T19:49:07.213Z,25.54
2019-06-20T19:51:40.571Z,25.46
2019-06-20T19:54:13.827Z,25.43
2019-06-20T19:56:46.984Z,25.35
2019-06-20T19:59:20.385Z,25.28
2019-06-20T20:01:53.560Z,25.23
2019-06-20T20:04:26.969Z,25.20
2019-06-20T20:07:00.168Z,25.18
2019-06-20T20:09:33.648Z,25.17
2019-06-20T20:12:06.638Z,25.14
2019-06-20T20:14:39.726Z,25.09
2019-06-20T20:17:12.871Z,24.97
2019-06-20T20:19:46.116Z,24.94
2019-06-20T20:22:19.424Z,24.78
2019-06-20T20:24:52.754Z,24.63
2019-06-20T20:27:25.815Z,24.60
2019-06-20T20:29:58.944Z,24.62
2019-06-20T20:32:31.986Z,24.56
2019-06-20T20:35:05.125Z,24.50
2019-06-20T20:37:38.331Z,24.46
2019-06-20T20:40:12.581Z,24.28
2019-06-20T20:42:46.057Z,24.07
2019-06-20T20:45:19.490Z,23.93
2019-06-20T20:47:52.494Z,23.79
2019-06-20T20:50:25.575Z,23.74
2019-06-20T20:52:59.191Z,23.72
2019-06-20T20:55:32.382Z,23.69
2019-06-20T20:58:05.432Z,23.73
2019-06-20T21:00:50.615Z,23.65
2019-06-20T21:03:23.724Z,23.61
2019-06-20T21:05:56.797Z,23.54
2019-06-20T21:08:32.739Z,23.54
2019-06-20T21:11:04.703Z,23.57
2019-06-20T21:13:37.745Z,23.57
2019-06-20T21:16:11.976Z,23.58
2019-06-20T21:18:45.262Z,23.64
2019-06-20T21:21:18.626Z,23.54
2019-06-20T21:23:51.782Z,23.43
2019-06-20T21:26:24.823Z,23.43
2019-06-20T21:28:58.006Z,23.34
2019-06-20T21:31:30.943Z,23.33
2019-06-20T21:34:04.069Z,23.28
2019-06-20T21:36:37.288Z,23.25
2019-06-20T21:39:10.760Z,23.19
2019-06-20T21:41:43.705Z,23.10
2019-06-20T21:44:16.769Z,22.98
2019-06-20T21:46:49.896Z,22.93
2019-06-20T21:49:23.222Z,22.89
2019-06-20T21:51:56.276Z,22.79
2019-06-20T21:54:29.397Z,22.63
2019-06-20T21:57:02.397Z,22.53
2019-06-20T21:59:35.520Z,22.50
2019-06-20T22:02:09.585Z,22.43
2019-06-20T22:04:53.970Z,22.35
2019-06-20T22:07:17.632Z,22.33
2019-06-20T22:09:50.565Z,22.27
2019-06-20T22:12:23.649Z,22.27
2019-06-20T22:14:56.703Z,22.28
2019-06-20T22:17:29.725Z,22.17
2019-06-20T22:20:02.861Z,22.02
2019-06-20T22:22:36.168Z,22.04
2019-06-20T22:25:09.777Z,22.02
2019-06-20T22:27:42.722Z,21.97
2019-06-20T22:30:16.923Z,21.96
2019-06-20T22:32:49.914Z,21.93
2019-06-20T22:35:22.931Z,21.97
2019-06-20T22:37:55.957Z,21.95
2019-06-20T22:40:29.039Z,21.89
2019-06-20T22:43:02.168Z,21.82
2019-06-20T22:45:35.366Z,21.69
2019-06-20T22:48:08.759Z,21.64
2019-06-20T22:50:42.026Z,21.56
2019-06-20T22:53:16.142Z,21.34
2019-06-20T22:55:49.262Z,21.18
2019-06-20T22:58:22.253Z,21.13
2019-06-20T23:00:55.342Z,21.15
2019-06-20T23:03:28.462Z,21.11
2019-06-20T23:06:01.573Z,21.12
2019-06-20T23:08:34.881Z,21.20
2019-06-20T23:11:07.893Z,21.24
2019-06-20T23:13:40.967Z,21.34
2019-06-20T23:16:13.957Z,21.36
2019-06-20T23:18:47.013Z,21.39
2019-06-20T23:21:20.079Z,21.39
2019-06-20T23:23:53.109Z,21.40
2019-06-20T23:26:26.124Z,21.35
2019-06-20T23:29:16.902Z,21.28
2019-06-20T23:31:50.025Z,21.22
2019-06-20T23:34:23.330Z,21.22
2019-06-20T23:37:11.637Z,21.19
2019-06-20T23:39:31.097Z,21.27
2019-06-20T23:42:04.088Z,21.32
2019-06-20T23:44:37.074Z,21.36
2019-06-20T23:47:09.984Z,21.32
2019-06-20T23:49:43.086Z,21.24
2019-06-20T23:52:19.787Z,21.27
2019-06-20T23:54:52.862Z,21.31
2019-06-20T23:57:25.892Z,21.33
2019-06-20T23:59:58.859Z,21.33
